createdAt,value
2019-02-15T00:00:39.904Z,100010.37
2019-02-15T00:03:10.851Z,100017.59
2019-02-15T00:05:41.398Z,100018.94
2019-02-15T00:08:13.366Z,100014.91
2019-02-15T00:10:43.790Z,100007.71
2019-02-15T00:13:14.478Z,100000.16
2019-02-15T00:15:46.678Z,100010.70
2019-02-15T00:18:30.355Z,100009.20
2019-02-15T00:21:35.159Z,100010.55
2019-02-15T00:24:05.677Z,100003.31
2019-02-15T00:26:38.884Z,100002.13
2019-02-15T00:29:09.722Z,99996.94
2019-02-15T00:31:41.577Z,100007.00
2019-02-15T00:34:12.274Z,100003.83
2019-02-15T00:36:42.631Z,100010.36
2019-02-15T00:39:13.515Z,100010.36
2019-02-15T00:41:44.084Z,100003.64
2019-02-15T00:44:14.961Z,100003.66
2019-02-15T00:47:09.091Z,100003.50
2019-02-15T00:49:58.602Z,100002.00
2019-02-15T00:52:53.190Z,99997.47
2019-02-15T00:55:38.362Z,100000.65
2019-02-15T00:58:33.907Z,99999.66
2019-02-15T01:01:16.180Z,99988.06
2019-02-15T01:04:15.153Z,99976.31
2019-02-15T01:07:07.313Z,99980.19
2019-02-15T01:10:02.816Z,99984.88
2019-02-15T01:12:42.330Z,99983.69
2019-02-15T01:15:13.386Z,99981.69
2019-02-15T01:17:43.856Z,99986.88
2019-02-15T01:20:14.313Z,99969.77
2019-02-15T01:22:46.109Z,99971.12
2019-02-15T01:25:16.755Z,99966.59
2019-02-15T01:27:56.080Z,99972.61
2019-02-15T01:30:44.352Z,99978.33
2019-02-15T01:33:32.752Z,99982.52
2019-02-15T01:36:22.414Z,99976.49
2019-02-15T01:39:08.999Z,99993.42
2019-02-15T01:41:58.484Z,99984.02
2019-02-15T01:44:59.803Z,99974.78
2019-02-15T01:47:37.558Z,99963.87
2019-02-15T01:50:08.350Z,99971.77
2019-02-15T01:52:40.346Z,99974.61
2019-02-15T01:55:12.134Z,99980.45
2019-02-15T01:57:42.924Z,99974.27
2019-02-15T02:00:16.013Z,99970.56
2019-02-15T02:02:46.607Z,99961.19
2019-02-15T02:05:17.007Z,99960.16
2019-02-15T02:07:47.856Z,99959.66
2019-02-15T02:10:18.244Z,99964.02
2019-02-15T02:12:48.737Z,99961.69
2019-02-15T02:15:19.351Z,99953.28
2019-02-15T02:17:50.135Z,99942.72
2019-02-15T02:20:20.777Z,99943.72
2019-02-15T02:22:51.774Z,99937.83
2019-02-15T02:25:22.373Z,99934.16
2019-02-15T02:27:54.560Z,99925.28
2019-02-15T02:30:25.307Z,99926.27
2019-02-15T02:32:56.532Z,99918.04
2019-02-15T02:35:27.077Z,99927.97
2019-02-15T02:37:58.685Z,99920.41
2019-02-15T02:40:30.911Z,99929.97
2019-02-15T02:43:01.605Z,99931.97
2019-02-15T02:45:32.562Z,99936.34
2019-02-15T02:48:02.987Z,99933.14
2019-02-15T02:50:33.634Z,99939.01
2019-02-15T02:53:04.674Z,99935.33
2019-02-15T02:55:35.394Z,99944.55
2019-02-15T02:58:06.442Z,99939.17
2019-02-15T03:00:37.229Z,99941.88
2019-02-15T03:03:07.767Z,99931.78
2019-02-15T03:05:38.247Z,99943.05
2019-02-15T03:08:09.112Z,99947.55
2019-02-15T03:10:40.494Z,99950.58
2019-02-15T03:13:11.127Z,99945.38
2019-02-15T03:15:41.906Z,99939.15
2019-02-15T03:18:12.302Z,99947.20
2019-02-15T03:20:42.687Z,99938.83
2019-02-15T03:23:13.919Z,99926.26
2019-02-15T03:25:44.483Z,99921.86
2019-02-15T03:28:17.641Z,99922.39
2019-02-15T03:30:48.282Z,99926.23
2019-02-15T03:33:18.835Z,99936.80
2019-02-15T03:36:00.095Z,99936.64
2019-02-15T03:38:57.324Z,99930.44
2019-02-15T03:41:32.705Z,99933.30
2019-02-15T03:44:03.087Z,99936.83
2019-02-15T03:46:33.745Z,99936.15
2019-02-15T03:49:04.805Z,99929.09
2019-02-15T03:51:35.240Z,99928.09
2019-02-15T03:54:05.776Z,99925.60
2019-02-15T03:56:37.634Z,99926.78
2019-02-15T03:59:10.010Z,99909.17
2019-02-15T04:01:43.477Z,99917.55
2019-02-15T04:04:14.651Z,99928.12
2019-02-15T04:06:47.482Z,99926.61
2019-02-15T04:09:18.249Z,99930.47
2019-02-15T04:11:48.759Z,99929.98
2019-02-15T04:14:19.098Z,99919.91
2019-02-15T04:16:49.887Z,99922.77
2019-02-15T04:19:22.041Z,99919.58
2019-02-15T04:21:52.468Z,99927.45
2019-02-15T04:24:23.143Z,99930.80
2019-02-15T04:26:53.792Z,99931.50
2019-02-15T04:29:24.436Z,99934.02
2019-02-15T04:31:55.141Z,99931.64
2019-02-15T04:34:25.782Z,99920.24
2019-02-15T04:36:56.660Z,99922.75
2019-02-15T04:39:27.829Z,99920.92
2019-02-15T04:41:58.267Z,99926.29
2019-02-15T04:44:28.935Z,99937.20
2019-02-15T04:46:59.393Z,99937.84
2019-02-15T04:49:29.872Z,99938.69
2019-02-15T04:52:00.485Z,99941.38
2019-02-15T04:54:31.329Z,99943.73
2019-02-15T04:57:02.119Z,99954.63
2019-02-15T04:59:32.997Z,99960.84
2019-02-15T05:02:03.824Z,99962.20
2019-02-15T05:04:34.712Z,99955.98
2019-02-15T05:07:06.020Z,99951.98
2019-02-15T05:09:37.221Z,99959.19
2019-02-15T05:12:07.902Z,99951.47
2019-02-15T05:14:38.445Z,99953.16
2019-02-15T05:17:09.289Z,99953.67
2019-02-15T05:19:40.071Z,99968.75
2019-02-15T05:22:10.748Z,99965.39
2019-02-15T05:24:41.642Z,99966.92
2019-02-15T05:27:12.240Z,99970.78
2019-02-15T05:29:42.659Z,99972.45
2019-02-15T05:32:13.224Z,99974.12
2019-02-15T05:34:43.753Z,99966.73
2019-02-15T05:37:14.511Z,99964.23
2019-02-15T05:39:44.936Z,99982.70
2019-02-15T05:42:15.418Z,99975.48
2019-02-15T05:44:46.508Z,99979.67
2019-02-15T05:47:17.921Z,99982.49
2019-02-15T05:49:48.530Z,99972.61
2019-02-15T05:52:19.012Z,99973.09
2019-02-15T05:54:50.561Z,99972.10
2019-02-15T05:57:21.543Z,99977.80
2019-02-15T05:59:52.185Z,99984.86
2019-02-15T06:02:22.914Z,99981.34
2019-02-15T06:04:53.658Z,99977.14
2019-02-15T06:07:24.174Z,99988.88
2019-02-15T06:09:54.894Z,99982.16
2019-02-15T06:12:25.366Z,99990.75
2019-02-15T06:14:55.830Z,99990.75
2019-02-15T06:17:27.370Z,99989.41
2019-02-15T06:19:58.151Z,99999.32
2019-02-15T06:22:28.653Z,99994.45
2019-02-15T06:24:59.220Z,99999.98
2019-02-15T06:27:29.737Z,100005.69
2019-02-15T06:30:00.740Z,100013.89
2019-02-15T06:32:31.574Z,100015.09
2019-02-15T06:35:02.173Z,100015.42
2019-02-15T06:37:32.723Z,100011.89
2019-02-15T06:40:03.413Z,100014.42
2019-02-15T06:42:33.779Z,100019.10
2019-02-15T06:45:04.259Z,100025.17
2019-02-15T06:47:34.805Z,100025.66
2019-02-15T06:50:06.132Z,100031.37
2019-02-15T06:52:36.669Z,100038.08
2019-02-15T06:55:08.291Z,100028.53
2019-02-15T06:57:38.841Z,100036.77
2019-02-15T07:00:32.073Z,100039.09
2019-02-15T07:03:18.231Z,100048.14
2019-02-15T07:05:48.854Z,100039.08
2019-02-15T07:08:19.258Z,100043.11
2019-02-15T07:10:49.756Z,100036.39
2019-02-15T07:13:20.128Z,100040.11
2019-02-15T07:15:51.730Z,100033.89
2019-02-15T07:18:22.121Z,100042.77
2019-02-15T07:20:52.817Z,100034.39
2019-02-15T07:23:26.077Z,100035.05
2019-02-15T07:25:57.893Z,100045.15
2019-02-15T07:42:15.437Z,100048.17
2019-02-15T07:44:49.296Z,100047.51
2019-02-15T07:47:22.392Z,100051.23
2019-02-15T07:49:57.150Z,100051.20
2019-02-15T07:52:29.868Z,100061.30
2019-02-15T07:55:02.078Z,100053.38
2019-02-15T07:57:34.053Z,100056.75
2019-02-15T08:00:10.161Z,100056.73
2019-02-15T08:02:42.583Z,100061.95
2019-02-15T08:05:14.837Z,100063.30
2019-02-15T08:07:46.985Z,100057.08
2019-02-15T08:10:19.081Z,100054.41
2019-02-15T08:12:51.279Z,100062.78
2019-02-15T08:15:23.583Z,100059.94
2019-02-15T08:17:55.634Z,100055.73
2019-02-15T08:20:27.779Z,100061.44
2019-02-15T08:23:00.072Z,100060.30
2019-02-15T08:25:32.124Z,100057.44
2019-02-15T08:28:04.102Z,100053.91
2019-02-15T08:30:36.888Z,100052.88
2019-02-15T08:33:09.089Z,100053.24
2019-02-15T08:35:41.183Z,100055.58
2019-02-15T08:38:13.163Z,100060.59
2019-02-15T08:40:45.365Z,100072.20
2019-02-15T08:43:17.630Z,100054.70
2019-02-15T08:45:49.895Z,100064.32
2019-02-15T08:48:23.611Z,100064.49
2019-02-15T08:50:55.585Z,100063.81
2019-02-15T08:53:27.638Z,100065.30
2019-02-15T08:55:59.971Z,100055.21
2019-02-15T08:58:32.060Z,100060.73
2019-02-15T09:01:05.243Z,100060.36
2019-02-15T09:03:37.635Z,100060.88
2019-02-15T09:06:09.777Z,100066.11
2019-02-15T09:08:41.940Z,100064.78
2019-02-15T09:11:14.030Z,100066.45
2019-02-15T09:13:47.472Z,100066.77
2019-02-15T09:16:19.517Z,100061.17
2019-02-15T09:18:52.060Z,100071.99
2019-02-15T09:21:24.160Z,100071.99
2019-02-15T09:23:56.207Z,100063.55
2019-02-15T09:26:29.836Z,100062.02
2019-02-15T09:29:05.782Z,100061.48
2019-02-15T09:31:37.908Z,100061.48
2019-02-15T09:34:10.048Z,100064.87
2019-02-15T09:36:42.201Z,100065.67
2019-02-15T09:39:14.187Z,100071.71
2019-02-15T09:41:48.667Z,100073.41
2019-02-15T09:44:20.656Z,100073.05
2019-02-15T09:46:52.894Z,100074.87
2019-02-15T09:49:24.879Z,100069.67
2019-02-15T09:51:57.831Z,100071.37
2019-02-15T09:54:29.818Z,100067.09
2019-02-15T09:57:01.951Z,100063.00
2019-02-15T09:59:33.971Z,100062.30
2019-02-15T10:02:06.000Z,100064.39
2019-02-15T10:04:38.076Z,100062.86
2019-02-15T10:07:10.326Z,100058.61
2019-02-15T10:09:42.534Z,100050.19
2019-02-15T10:12:14.572Z,100051.86
2019-02-15T10:14:46.542Z,100050.67
2019-02-15T10:17:18.848Z,100036.61
2019-02-15T10:19:50.899Z,100047.93
2019-02-15T10:22:22.895Z,100049.52
2019-02-15T10:24:55.002Z,100041.10
2019-02-15T10:27:27.443Z,100037.17
2019-02-15T10:29:59.962Z,100029.58
2019-02-15T10:32:32.710Z,100029.03
2019-02-15T10:35:06.632Z,100023.78
2019-02-15T12:44:38.588Z,99934.03
2019-02-15T12:47:15.120Z,99921.82
2019-02-15T12:49:41.805Z,99918.45
2019-02-15T12:52:12.776Z,99914.41
2019-02-15T12:54:45.002Z,99913.45
2019-02-15T12:57:15.671Z,99910.20
2019-02-15T12:59:46.654Z,99902.61
2019-02-15T13:02:19.606Z,99905.34
2019-02-15T13:04:50.037Z,99895.23
2019-02-15T13:07:22.083Z,99893.44
2019-02-15T13:09:52.860Z,99878.20
2019-02-15T13:12:23.412Z,99888.47
2019-02-15T13:14:54.132Z,99876.73
2019-02-15T13:17:25.210Z,99877.45
2019-02-15T13:19:56.079Z,99880.52
2019-02-15T13:22:26.543Z,99884.34
2019-02-15T13:24:57.095Z,99877.07
2019-02-15T13:27:27.729Z,99882.75
2019-02-15T13:29:58.524Z,99886.48
2019-02-15T13:32:30.130Z,99876.80
2019-02-15T13:35:00.882Z,99872.04
2019-02-15T13:37:31.289Z,99871.70
2019-02-15T13:40:01.790Z,99866.40
2019-02-15T13:42:32.215Z,99865.28
2019-02-15T13:45:03.285Z,99868.67
2019-02-15T13:47:34.992Z,99863.60
2019-02-15T13:50:06.472Z,99855.66
2019-02-15T13:52:37.076Z,99858.03
2019-02-15T13:55:07.706Z,99857.75
2019-02-15T13:57:37.992Z,99848.94
2019-02-15T14:00:09.706Z,99848.10
2019-02-15T14:02:40.344Z,99847.00
2019-02-15T14:05:11.403Z,99844.98
2019-02-15T14:07:41.913Z,99858.41
2019-02-15T14:10:12.548Z,99857.23
2019-02-15T14:12:45.850Z,99835.34
2019-02-15T14:15:16.307Z,99841.53
2019-02-15T14:17:48.715Z,99831.95
2019-02-15T14:20:20.043Z,99829.70
2019-02-15T14:22:50.727Z,99834.00
2019-02-15T14:25:22.537Z,99833.00
2019-02-15T14:27:53.039Z,99829.54
2019-02-15T14:30:23.769Z,99824.95
2019-02-15T14:32:54.554Z,99820.95
2019-02-15T14:35:26.283Z,99823.98
2019-02-15T14:37:58.592Z,99821.44
2019-02-15T14:40:29.009Z,99823.63
2019-02-15T14:43:00.097Z,99824.80
2019-02-15T14:45:31.219Z,99811.56
2019-02-15T14:48:02.833Z,99812.35
2019-02-15T14:50:33.404Z,99808.23
2019-02-15T14:53:05.162Z,99808.09
2019-02-15T14:55:36.014Z,99799.22
2019-02-15T14:58:06.630Z,99800.78
2019-02-15T15:00:37.586Z,99804.45
2019-02-15T15:03:08.461Z,99801.88
2019-02-15T15:05:39.956Z,99799.50
2019-02-15T15:08:10.699Z,99792.86
2019-02-15T15:10:41.407Z,99790.28
2019-02-15T15:13:11.770Z,99796.33
2019-02-15T15:15:44.076Z,99787.92
2019-02-15T15:18:15.742Z,99787.00
2019-02-15T15:20:46.376Z,99790.80
2019-02-15T15:23:18.716Z,99787.85
2019-02-15T15:25:49.061Z,99794.14
2019-02-15T15:28:21.200Z,99780.27
2019-02-15T15:30:53.366Z,99783.77
2019-02-15T15:33:23.862Z,99773.48
2019-02-15T15:35:54.240Z,99782.92
2019-02-15T15:38:24.607Z,99782.30
2019-02-15T15:40:55.171Z,99784.19
2019-02-15T15:43:27.580Z,99789.13
2019-02-15T15:45:58.146Z,99782.08
2019-02-15T15:48:30.294Z,99784.81
2019-02-15T15:51:01.020Z,99782.41
2019-02-15T15:53:32.838Z,99774.47
2019-02-15T15:56:03.561Z,99779.60
2019-02-15T15:58:34.023Z,99781.03
2019-02-15T16:01:04.923Z,99781.36
2019-02-15T16:03:35.426Z,99777.45
2019-02-15T16:06:06.106Z,99781.23
2019-02-15T16:08:36.595Z,99789.19
2019-02-15T16:11:07.631Z,99794.11
2019-02-15T16:13:38.152Z,99793.70
2019-02-15T16:16:08.689Z,99782.45
2019-02-15T16:18:39.157Z,99784.34
2019-02-15T16:21:10.536Z,99786.63
2019-02-15T16:23:40.899Z,99788.86
2019-02-15T16:26:11.422Z,99790.41
2019-02-15T16:28:41.856Z,99792.73
2019-02-15T16:31:12.567Z,99787.00
2019-02-15T16:33:43.011Z,99783.47
2019-02-15T16:36:13.363Z,99789.77
2019-02-15T16:38:43.893Z,99788.78
2019-02-15T16:41:14.497Z,99786.59
2019-02-15T16:43:44.927Z,99789.16
2019-02-15T16:46:15.628Z,99788.81
2019-02-15T16:48:46.216Z,99788.20
2019-02-15T16:51:18.267Z,99798.95
2019-02-15T16:53:48.785Z,99791.23
2019-02-15T16:56:19.269Z,99792.47
2019-02-15T16:58:49.874Z,99790.98
2019-02-15T17:01:23.098Z,99797.58
2019-02-15T17:03:53.804Z,99791.07
2019-02-15T17:06:26.949Z,99789.22
2019-02-15T17:08:58.357Z,99783.38
2019-02-15T17:11:29.196Z,99789.64
2019-02-15T17:13:59.984Z,99794.94
2019-02-15T17:16:31.093Z,99784.34
2019-02-15T17:19:03.794Z,99796.95
2019-02-15T17:21:34.466Z,99790.28
2019-02-15T17:24:06.135Z,99799.87
2019-02-15T17:26:37.449Z,99798.73
2019-02-15T17:29:07.927Z,99799.16
2019-02-15T17:31:38.387Z,99794.99
2019-02-15T17:34:08.892Z,99797.20
2019-02-15T17:36:39.432Z,99797.25
2019-02-15T17:39:10.140Z,99794.55
2019-02-15T17:41:40.491Z,99800.78
2019-02-15T17:44:11.550Z,99804.88
2019-02-15T17:46:43.367Z,99783.00
2019-02-15T17:49:13.853Z,99787.25
2019-02-15T17:51:44.562Z,99785.91
2019-02-15T17:54:15.035Z,99787.27
2019-02-15T17:56:45.982Z,99782.42
2019-02-15T17:59:16.532Z,99785.97
2019-02-15T18:01:47.159Z,99782.29
2019-02-15T18:04:17.567Z,99783.65
2019-02-15T18:06:48.171Z,99793.95
2019-02-15T18:09:19.305Z,99800.67
2019-02-15T18:11:50.093Z,99782.01
2019-02-15T18:14:22.880Z,99798.84
2019-02-15T18:16:53.780Z,99784.91
2019-02-15T18:19:24.314Z,99790.78
2019-02-15T18:21:54.661Z,99791.28
2019-02-15T18:24:24.993Z,99794.17
2019-02-15T18:26:55.455Z,99789.34
2019-02-15T18:29:25.991Z,99789.00
2019-02-15T18:31:56.482Z,99791.04
2019-02-15T18:34:27.591Z,99796.78
2019-02-15T18:36:58.064Z,99786.22
2019-02-15T18:39:30.474Z,99785.76
2019-02-15T18:42:00.997Z,99789.11
2019-02-15T18:44:33.977Z,99786.45
2019-02-15T18:47:05.072Z,99782.58
2019-02-15T18:49:35.687Z,99774.02
2019-02-15T18:52:06.050Z,99772.83
2019-02-15T18:54:37.016Z,99777.36
2019-02-15T18:57:07.417Z,99775.17
2019-02-15T18:59:37.989Z,99777.36
2019-02-15T19:02:08.731Z,99783.58
2019-02-15T19:04:39.438Z,99774.52
2019-02-15T19:07:10.179Z,99772.98
2019-02-15T19:09:40.951Z,99776.70
2019-02-15T19:12:11.567Z,99772.48
2019-02-15T19:14:41.843Z,99781.58
2019-02-15T19:17:12.422Z,99772.33
2019-02-15T19:19:42.761Z,99768.84
2019-02-15T19:22:13.231Z,99773.07
2019-02-15T19:24:43.753Z,99777.45
2019-02-15T19:27:14.323Z,99777.60
2019-02-15T19:29:45.007Z,99784.32
2019-02-15T19:32:16.496Z,99778.95
2019-02-15T19:34:47.554Z,99785.16
2019-02-15T19:37:22.071Z,99778.78
2019-02-15T19:39:52.359Z,99785.85
2019-02-15T19:42:23.747Z,99768.84
2019-02-15T19:44:54.606Z,99780.09
2019-02-15T19:47:25.573Z,99777.59
2019-02-15T19:49:56.038Z,99775.59
2019-02-15T19:52:26.644Z,99772.42
2019-02-15T19:54:57.236Z,99770.22
2019-02-15T19:57:28.315Z,99774.95
2019-02-15T20:00:01.267Z,99768.05
2019-02-15T20:02:32.871Z,99769.92
2019-02-15T20:05:03.699Z,99763.20
2019-02-15T20:07:35.885Z,99768.92
2019-02-15T20:10:08.381Z,99771.27
2019-02-15T20:12:38.992Z,99769.92
2019-02-15T20:15:10.828Z,99764.55
2019-02-15T20:17:41.555Z,99760.36
2019-02-15T20:20:13.017Z,99766.23
2019-02-15T20:22:43.953Z,99768.23
2019-02-15T20:25:14.665Z,99765.20
2019-02-15T20:27:45.303Z,99757.48
2019-02-15T20:30:18.265Z,99763.74
2019-02-15T20:32:49.263Z,99753.65
2019-02-15T20:35:20.128Z,99761.55
2019-02-15T20:37:51.035Z,99750.16
2019-02-15T20:40:22.819Z,99760.06
2019-02-15T20:42:53.714Z,99759.59
2019-02-15T20:45:24.317Z,99750.70
2019-02-15T20:47:55.142Z,99750.70
2019-02-15T20:50:26.478Z,99757.28
2019-02-15T20:52:57.320Z,99758.31
2019-02-15T20:55:27.870Z,99755.30
2019-02-15T20:57:58.620Z,99747.63
2019-02-15T21:00:29.815Z,99754.17
2019-02-15T21:03:01.729Z,99749.17
2019-02-15T21:05:32.512Z,99751.01
2019-02-15T21:08:03.175Z,99748.67
2019-02-15T21:10:33.672Z,99745.30
2019-02-15T21:13:04.358Z,99749.16
2019-02-15T21:15:35.522Z,99745.81
2019-02-15T21:18:06.043Z,99747.83
2019-02-15T21:20:38.301Z,99750.49
2019-02-15T21:23:09.037Z,99752.03
2019-02-15T21:25:40.542Z,99748.00
2019-02-15T21:28:11.565Z,99741.27
2019-02-15T21:30:42.400Z,99749.98
2019-02-15T21:33:13.206Z,99745.14
2019-02-15T21:35:43.838Z,99742.30
2019-02-15T21:38:14.433Z,99749.33
2019-02-15T21:40:45.023Z,99737.25
2019-02-15T21:43:16.381Z,99732.56
2019-02-15T21:45:46.708Z,99736.08
2019-02-15T21:48:17.678Z,99742.64
2019-02-15T21:50:49.277Z,99742.45
2019-02-15T21:53:20.558Z,99729.88
2019-02-15T21:55:52.000Z,99735.58
2019-02-15T21:58:22.405Z,99738.91
2019-02-15T22:00:53.293Z,99737.35
2019-02-15T22:03:23.767Z,99737.67
2019-02-15T22:05:55.804Z,99749.06
2019-02-15T22:08:26.462Z,99743.39
2019-02-15T22:10:56.948Z,99742.02
2019-02-15T22:13:27.364Z,99736.64
2019-02-15T22:15:58.256Z,99741.17
2019-02-15T22:18:30.211Z,99741.36
2019-02-15T22:21:00.956Z,99738.70
2019-02-15T22:23:31.457Z,99733.48
2019-02-15T22:26:02.121Z,99734.02
2019-02-15T22:28:32.470Z,99739.04
2019-02-15T22:31:03.352Z,99719.75
2019-02-15T22:33:34.790Z,99724.80
2019-02-15T22:36:06.013Z,99727.00
2019-02-15T22:38:36.785Z,99721.31
2019-02-15T22:41:17.767Z,99723.84
2019-02-15T22:43:50.389Z,99723.02
2019-02-15T22:46:22.558Z,99723.00
2019-02-15T22:48:53.064Z,99715.80
2019-02-15T22:51:23.610Z,99717.83
2019-02-15T22:53:54.197Z,99723.00
2019-02-15T22:56:24.783Z,99718.16
2019-02-15T22:58:55.291Z,99727.55
2019-02-15T23:01:27.615Z,99732.75
2019-02-15T23:03:58.503Z,99731.21
2019-02-15T23:06:30.863Z,99721.02
2019-02-15T23:09:01.356Z,99727.19
2019-02-15T23:11:33.488Z,99723.16
2019-02-15T23:14:03.946Z,99731.21
2019-02-15T23:16:34.434Z,99729.55
2019-02-15T23:19:05.820Z,99719.84
2019-02-15T23:21:36.258Z,99722.70
2019-02-15T23:24:06.791Z,99735.08
2019-02-15T23:26:37.756Z,99726.72
2019-02-15T23:29:08.250Z,99736.77
2019-02-15T23:31:39.068Z,99735.94
2019-02-15T23:34:09.454Z,99731.22
2019-02-15T23:36:40.696Z,99732.72
2019-02-15T23:39:11.057Z,99725.34
2019-02-15T23:41:41.545Z,99724.16
2019-02-15T23:44:12.299Z,99729.70
2019-02-15T23:46:42.738Z,99729.87
2019-02-15T23:49:13.276Z,99726.02
2019-02-15T23:51:45.244Z,99727.34
2019-02-15T23:54:15.927Z,99722.00
2019-02-15T23:56:46.448Z,99716.82
2019-02-15T23:59:16.974Z,99720.16
